createdAt,value
2018-12-31T00:02:31.137Z,101394.14
2018-12-31T00:05:03.618Z,101386.23
2018-12-31T00:07:34.439Z,101385.95
2018-12-31T00:10:23.951Z,101383.50
2018-12-31T00:12:55.154Z,101378.29
2018-12-31T00:15:25.757Z,101375.92
2018-12-31T00:17:56.557Z,101380.47
2018-12-31T00:20:27.365Z,101369.66
2018-12-31T00:22:57.805Z,101368.98
2018-12-31T00:25:28.286Z,101368.98
2018-12-31T00:27:59.022Z,101375.14
2018-12-31T00:30:29.465Z,101378.37
2018-12-31T00:33:00.293Z,101378.96
2018-12-31T00:35:30.739Z,101377.70
2018-12-31T00:38:01.978Z,101374.69
2018-12-31T00:40:32.426Z,101375.89
2018-12-31T00:43:22.691Z,101376.76
2018-12-31T00:45:53.455Z,101374.09
2018-12-31T00:48:23.896Z,101374.97
2018-12-31T00:50:54.371Z,101374.48
2018-12-31T00:53:25.140Z,101370.78
2018-12-31T00:56:15.421Z,101377.22
2018-12-31T00:58:45.873Z,101363.64
2018-12-31T01:01:16.307Z,101362.14
2018-12-31T01:04:07.842Z,101366.20
2018-12-31T01:06:38.293Z,101359.86
2018-12-31T01:09:08.819Z,101361.30
2018-12-31T01:11:39.266Z,101359.48
2018-12-31T01:14:09.711Z,101357.28
2018-12-31T01:16:40.181Z,101363.75
2018-12-31T01:19:10.997Z,101371.03
2018-12-31T01:21:41.504Z,101369.06
2018-12-31T01:24:11.943Z,101370.19
2018-12-31T01:27:01.891Z,101374.66
2018-12-31T01:29:32.338Z,101379.77
2018-12-31T01:32:04.499Z,101371.72
2018-12-31T01:34:35.642Z,101374.35
2018-12-31T01:37:06.093Z,101374.84
2018-12-31T01:39:38.303Z,101377.95
2018-12-31T01:42:09.222Z,101383.38
2018-12-31T01:44:40.095Z,101387.16
2018-12-31T01:47:10.566Z,101385.27
2018-12-31T01:49:41.014Z,101389.16
2018-12-31T01:52:11.878Z,101385.27
2018-12-31T01:54:42.351Z,101391.53
2018-12-31T01:57:13.130Z,101392.19
2018-12-31T01:59:45.713Z,101396.77
2018-12-31T02:05:31.854Z,101408.92
2018-12-31T02:08:02.312Z,101403.49
2018-12-31T02:10:32.761Z,101407.03
2018-12-31T02:13:03.906Z,101416.79
2018-12-31T02:15:34.355Z,101419.27
2018-12-31T02:18:04.861Z,101418.05
2018-12-31T02:20:35.706Z,101416.44
2018-12-31T02:23:06.547Z,101416.79
2018-12-31T02:25:37.016Z,101411.58
2018-12-31T02:28:07.459Z,101417.48
2018-12-31T02:30:37.943Z,101413.95
2018-12-31T02:33:08.787Z,101411.39
2018-12-31T02:35:39.228Z,101413.56
2018-12-31T02:38:11.850Z,101400.97
2018-12-31T02:40:42.615Z,101392.99
2018-12-31T02:43:14.817Z,101385.93
2018-12-31T02:45:45.267Z,101389.74
2018-12-31T02:48:15.731Z,101385.96
2018-12-31T02:50:46.521Z,101389.18
2018-12-31T02:53:17.369Z,101392.41
2018-12-31T02:55:48.275Z,101389.67
2018-12-31T03:01:08.439Z,101383.41
2018-12-31T03:03:39.251Z,101378.38
2018-12-31T03:06:10.052Z,101376.17
2018-12-31T03:09:18.846Z,101372.18
2018-12-31T03:11:49.693Z,101368.13
2018-12-31T03:14:20.536Z,101371.34
2018-12-31T03:16:50.980Z,101362.52
2018-12-31T03:19:21.458Z,101361.93
2018-12-31T03:21:51.904Z,101360.11
2018-12-31T03:24:42.211Z,101359.66
2018-12-31T03:27:12.662Z,101355.18
2018-12-31T03:32:59.288Z,101354.02
2018-12-31T03:35:49.175Z,101358.12
2018-12-31T03:38:19.663Z,101362.59
2018-12-31T03:40:50.271Z,101356.61
2018-12-31T03:43:20.725Z,101361.44
2018-12-31T03:45:51.201Z,101362.42
2018-12-31T03:48:21.643Z,101359.06
2018-12-31T03:50:52.453Z,101363.92
2018-12-31T03:53:42.400Z,101364.88
2018-12-31T03:56:12.892Z,101358.89
2018-12-31T03:58:43.692Z,101358.22
2018-12-31T04:01:14.491Z,101360.98
2018-12-31T04:03:45.143Z,101367.35
2018-12-31T04:06:15.958Z,101364.91
2018-12-31T04:08:46.883Z,101371.34
2018-12-31T04:11:17.330Z,101369.06
2018-12-31T04:13:47.776Z,101368.50
2018-12-31T04:16:37.731Z,101368.96
2018-12-31T04:19:08.235Z,101369.94
2018-12-31T04:21:38.679Z,101374.87
2018-12-31T04:24:09.134Z,101376.66
2018-12-31T04:26:39.607Z,101379.80
2018-12-31T04:29:10.054Z,101377.62
2018-12-31T04:31:42.572Z,101382.95
2018-12-31T04:34:32.854Z,101378.58
2018-12-31T04:37:03.310Z,101380.29
2018-12-31T04:39:35.520Z,101385.50
2018-12-31T04:42:07.697Z,101383.30
2018-12-31T04:44:38.170Z,101390.81
2018-12-31T04:47:09.025Z,101388.16
2018-12-31T04:49:39.463Z,101394.70
2018-12-31T04:52:09.955Z,101394.31
2018-12-31T04:54:40.399Z,101389.00
2018-12-31T04:57:10.902Z,101390.33
2018-12-31T04:59:41.375Z,101389.48
2018-12-31T05:02:11.827Z,101382.25
2018-12-31T05:04:42.475Z,101382.81
2018-12-31T05:07:12.920Z,101394.50
2018-12-31T05:09:43.684Z,101388.59
2018-12-31T05:12:14.159Z,101391.45
2018-12-31T05:14:44.608Z,101388.91
2018-12-31T05:17:15.116Z,101374.45
2018-12-31T05:19:45.562Z,101377.22
2018-12-31T05:22:16.019Z,101380.83
2018-12-31T05:25:06.077Z,101375.22
2018-12-31T05:27:56.698Z,101379.56
2018-12-31T05:30:27.206Z,101385.65
2018-12-31T05:32:59.375Z,101384.53
2018-12-31T05:35:29.847Z,101391.95
2018-12-31T05:38:02.373Z,101396.00
2018-12-31T05:40:32.819Z,101391.70
2018-12-31T05:43:03.733Z,101393.91
2018-12-31T05:45:34.927Z,101392.51
2018-12-31T05:48:05.769Z,101404.23
2018-12-31T05:50:36.245Z,101405.00
2018-12-31T05:53:06.763Z,101406.64
2018-12-31T05:55:37.605Z,101411.19
2018-12-31T05:58:08.054Z,101418.33
2018-12-31T06:00:42.093Z,101422.31
2018-12-31T06:03:32.251Z,101410.06
2018-12-31T06:06:02.770Z,101420.80
2018-12-31T06:08:33.264Z,101423.16
2018-12-31T06:11:04.084Z,101425.08
2018-12-31T06:13:34.536Z,101432.66
2018-12-31T06:16:05.012Z,101436.27
2018-12-31T06:18:35.791Z,101439.59
2018-12-31T06:21:06.444Z,101437.22
2018-12-31T06:23:36.922Z,101433.44
2018-12-31T06:26:07.335Z,101430.29
2018-12-31T06:28:37.807Z,101435.12
2018-12-31T06:31:10.330Z,101432.95
2018-12-31T06:33:42.556Z,101441.02
2018-12-31T06:36:32.850Z,101444.52
2018-12-31T06:39:03.534Z,101444.14
2018-12-31T06:41:33.977Z,101451.84
2018-12-31T06:44:23.935Z,101456.60
2018-12-31T06:47:13.863Z,101447.37
2018-12-31T06:49:44.704Z,101449.18
2018-12-31T06:52:15.164Z,101449.28
2018-12-31T06:54:46.298Z,101453.73
2018-12-31T06:57:16.795Z,101449.95
2018-12-31T06:59:47.246Z,101446.80
2018-12-31T07:02:18.112Z,101436.17
2018-12-31T07:04:48.550Z,101437.50
2018-12-31T07:07:37.934Z,101444.98
2018-12-31T07:10:08.675Z,101449.27
2018-12-31T07:12:39.124Z,101451.00
2018-12-31T07:15:09.674Z,101465.23
2018-12-31T07:17:40.119Z,101466.27
2018-12-31T07:20:10.613Z,101464.94
2018-12-31T07:22:41.057Z,101466.64
2018-12-31T07:25:11.492Z,101466.16
2018-12-31T07:27:42.329Z,101462.09
2018-12-31T07:30:12.771Z,101464.06
2018-12-31T07:33:02.704Z,101464.17
2018-12-31T07:35:33.153Z,101469.48
2018-12-31T07:38:03.678Z,101468.26
2018-12-31T07:40:34.116Z,101463.61
2018-12-31T07:43:04.557Z,101464.37
2018-12-31T07:45:35.036Z,101470.16
2018-12-31T07:48:05.471Z,101472.61
2018-12-31T07:50:55.417Z,101475.76
2018-12-31T07:53:26.156Z,101474.81
2018-12-31T07:55:56.963Z,101479.74
2018-12-31T07:58:27.452Z,101485.06
2018-12-31T08:00:57.885Z,101485.80
2018-12-31T08:03:28.321Z,101488.29
2018-12-31T08:06:00.653Z,101496.16
2018-12-31T08:08:32.800Z,101498.55
2018-12-31T08:11:03.633Z,101495.88
2018-12-31T08:13:34.116Z,101489.89
2018-12-31T08:16:04.552Z,101493.02
2018-12-31T08:18:35.338Z,101500.64
2018-12-31T08:21:05.816Z,101499.19
2018-12-31T08:23:36.251Z,101501.95
2018-12-31T08:26:06.689Z,101504.99
2018-12-31T08:28:37.633Z,101503.38
2018-12-31T08:31:09.804Z,101505.76
2018-12-31T08:33:40.242Z,101506.05
2018-12-31T08:36:11.045Z,101514.59
2018-12-31T08:38:41.484Z,101518.09
2018-12-31T08:41:11.922Z,101518.96
2018-12-31T08:43:42.805Z,101513.16
2018-12-31T08:46:13.241Z,101519.25
2018-12-31T08:48:43.679Z,101520.65
2018-12-31T08:51:14.505Z,101515.05
2018-12-31T08:53:45.759Z,101512.67
2018-12-31T08:56:16.195Z,101510.11
2018-12-31T08:58:47.075Z,101514.28
2018-12-31T09:01:17.590Z,101517.33
2018-12-31T09:03:48.321Z,101509.80
2018-12-31T09:06:18.808Z,101514.36
2018-12-31T09:08:49.277Z,101507.21
2018-12-31T09:11:19.717Z,101512.92
2018-12-31T09:13:50.493Z,101515.76
2018-12-31T09:16:21.088Z,101519.02
2018-12-31T09:18:51.524Z,101514.53
2018-12-31T09:21:22.322Z,101511.09
2018-12-31T09:23:54.802Z,101513.48
2018-12-31T09:26:25.627Z,101514.28
2018-12-31T09:28:56.113Z,101516.48
2018-12-31T09:31:26.570Z,101508.11
2018-12-31T09:33:57.002Z,101503.17
2018-12-31T09:36:47.254Z,101500.73
2018-12-31T09:39:19.413Z,101499.29
2018-12-31T09:41:49.845Z,101498.59
2018-12-31T09:44:20.340Z,101504.58
2018-12-31T09:46:50.783Z,101500.30
2018-12-31T09:49:21.621Z,101495.05
2018-12-31T09:51:52.450Z,101492.37
2018-12-31T09:54:22.902Z,101491.20
2018-12-31T09:56:53.343Z,101493.87
2018-12-31T09:59:25.540Z,101492.81
2018-12-31T10:01:57.692Z,101491.20
2018-12-31T10:04:30.233Z,101493.47
2018-12-31T10:09:55.835Z,101491.75
2018-12-31T10:12:45.789Z,101482.31
2018-12-31T10:15:35.697Z,101484.19
2018-12-31T10:18:06.190Z,101489.59
2018-12-31T10:20:36.621Z,101489.59
2018-12-31T10:23:07.050Z,101487.58
2018-12-31T10:25:56.997Z,101488.26
2018-12-31T10:28:27.735Z,101493.40
2018-12-31T10:31:00.276Z,101499.19
2018-12-31T10:33:30.760Z,101497.69
2018-12-31T10:36:01.546Z,101495.41
2018-12-31T10:38:31.985Z,101493.86
2018-12-31T10:41:02.482Z,101493.95
2018-12-31T10:43:33.245Z,101493.16
2018-12-31T10:46:03.692Z,101489.73
2018-12-31T10:48:34.599Z,101482.15
2018-12-31T10:51:05.038Z,101486.30
2018-12-31T10:53:35.785Z,101484.67
2018-12-31T10:56:06.583Z,101481.09
2018-12-31T10:58:37.026Z,101473.18
2018-12-31T11:01:07.470Z,101465.53
2018-12-31T11:03:38.309Z,101459.42
2018-12-31T11:06:09.055Z,101458.09
2018-12-31T11:08:39.521Z,101455.28
2018-12-31T11:14:05.873Z,101435.88
2018-12-31T11:16:36.362Z,101438.00
2018-12-31T11:19:26.272Z,101438.38
2018-12-31T11:21:57.073Z,101437.09
2018-12-31T11:24:27.902Z,101437.47
2018-12-31T11:29:47.704Z,101441.47
2018-12-31T11:32:37.017Z,101440.33
2018-12-31T11:35:07.905Z,101431.87
2018-12-31T11:37:38.342Z,101433.78
2018-12-31T11:40:28.013Z,101434.23
2018-12-31T11:42:58.841Z,101434.77
2018-12-31T11:45:48.268Z,101427.03
2018-12-31T11:48:18.715Z,101429.59
2018-12-31T11:51:08.077Z,101431.38
2018-12-31T11:53:38.871Z,101427.38
2018-12-31T11:56:09.707Z,101417.36
2018-12-31T11:58:40.974Z,101419.22
2018-12-31T12:01:11.409Z,101418.65
2018-12-31T12:03:43.563Z,101417.84
2018-12-31T12:06:14.041Z,101427.67
2018-12-31T12:08:44.922Z,101426.26
2018-12-31T12:11:16.326Z,101427.33
2018-12-31T12:13:46.818Z,101423.45
2018-12-31T12:16:17.254Z,101432.99
2018-12-31T12:21:37.351Z,101426.52
2018-12-31T12:24:07.794Z,101420.58
2018-12-31T12:26:38.569Z,101425.04
2018-12-31T12:29:09.028Z,101429.04
2018-12-31T12:31:41.176Z,101428.73
2018-12-31T12:34:31.415Z,101426.52
2018-12-31T12:37:40.349Z,101424.88
2018-12-31T12:40:30.301Z,101433.72
2018-12-31T12:43:00.728Z,101435.05
2018-12-31T12:45:50.688Z,101430.06
2018-12-31T12:48:21.120Z,101426.67
2018-12-31T12:50:51.940Z,101425.11
2018-12-31T12:53:22.745Z,101421.16
2018-12-31T12:55:53.179Z,101429.73
2018-12-31T12:58:43.134Z,101423.56
2018-12-31T13:01:33.034Z,101422.60
2018-12-31T13:04:25.744Z,101424.73
2018-12-31T13:07:15.950Z,101426.90
2018-12-31T13:10:06.469Z,101423.86
2018-12-31T13:12:36.905Z,101429.25
2018-12-31T13:15:07.492Z,101429.25
2018-12-31T13:17:57.442Z,101431.20
2018-12-31T13:20:47.748Z,101439.11
2018-12-31T13:23:18.589Z,101436.48
2018-12-31T13:25:49.034Z,101440.86
2018-12-31T13:28:39.000Z,101444.61
2018-12-31T13:31:09.836Z,101440.53
2018-12-31T13:33:42.304Z,101443.72
2018-12-31T13:36:32.259Z,101450.63
2018-12-31T13:42:11.929Z,101443.58
2018-12-31T13:44:43.110Z,101448.91
2018-12-31T13:47:13.564Z,101440.22
2018-12-31T13:53:19.541Z,101438.85
2018-12-31T13:55:49.987Z,101441.29
2018-12-31T13:58:39.952Z,101445.41
2018-12-31T14:01:29.857Z,101436.94
2018-12-31T14:04:00.666Z,101435.17
2018-12-31T14:06:31.507Z,101429.20
2018-12-31T14:09:02.276Z,101433.81
2018-12-31T14:11:33.288Z,101440.73
2018-12-31T14:16:54.451Z,101429.78
2018-12-31T14:19:25.558Z,101434.39
2018-12-31T14:21:56.330Z,101434.80
2018-12-31T14:24:46.286Z,101435.41
2018-12-31T14:27:16.739Z,101433.66
2018-12-31T14:29:47.183Z,101431.16
2018-12-31T14:32:37.628Z,101429.25
2018-12-31T14:35:09.896Z,101437.02
2018-12-31T14:37:59.887Z,101436.91
2018-12-31T14:40:50.144Z,101434.94
2018-12-31T14:43:40.091Z,101432.27
2018-12-31T14:46:30.009Z,101436.33
2018-12-31T14:49:00.831Z,101434.94
2018-12-31T14:51:31.284Z,101440.19
2018-12-31T14:54:21.248Z,101435.80
2018-12-31T14:56:52.078Z,101434.91
2018-12-31T14:59:43.775Z,101432.23
2018-12-31T15:02:14.534Z,101438.91
2018-12-31T15:05:23.601Z,101441.19
2018-12-31T15:07:54.053Z,101432.78
2018-12-31T15:10:44.017Z,101436.92
2018-12-31T15:13:33.931Z,101439.86
2018-12-31T15:16:23.922Z,101429.27
2018-12-31T15:19:14.213Z,101433.30
2018-12-31T15:21:44.713Z,101428.09
2018-12-31T15:24:15.167Z,101423.94
2018-12-31T15:26:45.615Z,101426.91
2018-12-31T15:29:17.827Z,101431.70
2018-12-31T15:31:50.317Z,101429.84
2018-12-31T15:34:42.598Z,101431.94
2018-12-31T15:37:14.755Z,101432.66
2018-12-31T15:39:45.204Z,101427.55
2018-12-31T15:42:36.862Z,101428.59
2018-12-31T15:45:26.787Z,101430.45
2018-12-31T15:48:16.823Z,101431.55
2018-12-31T15:50:47.645Z,101435.56
2018-12-31T15:53:18.394Z,101438.83
2018-12-31T15:56:10.026Z,101438.45
2018-12-31T15:58:59.987Z,101437.81
2018-12-31T16:04:20.296Z,101438.30
2018-12-31T16:07:10.215Z,101437.16
2018-12-31T16:10:00.177Z,101444.63
2018-12-31T16:12:50.098Z,101446.38
2018-12-31T16:15:40.061Z,101447.72
2018-12-31T16:18:10.546Z,101440.33
2018-12-31T16:21:02.202Z,101442.50
2018-12-31T16:23:34.364Z,101440.33
2018-12-31T16:26:24.320Z,101443.67
2018-12-31T16:28:54.943Z,101436.55
2018-12-31T16:31:25.387Z,101431.91
2018-12-31T16:34:15.338Z,101434.61
2018-12-31T16:36:46.201Z,101426.87
2018-12-31T16:39:16.655Z,101431.48
2018-12-31T16:44:42.388Z,101434.16
2018-12-31T16:50:28.199Z,101429.16
2018-12-31T16:52:58.697Z,101424.86
2018-12-31T16:55:48.608Z,101421.66
2018-12-31T16:58:38.567Z,101418.23
2018-12-31T17:01:28.491Z,101420.26
2018-12-31T17:03:58.991Z,101415.20
2018-12-31T17:09:18.960Z,101418.81
2018-12-31T17:12:09.013Z,101414.44
2018-12-31T17:14:58.978Z,101412.64
2018-12-31T17:17:29.428Z,101419.23
2018-12-31T17:19:59.900Z,101421.36
2018-12-31T17:22:30.715Z,101411.31
2018-12-31T17:25:01.160Z,101413.22
2018-12-31T17:27:51.118Z,101409.98
2018-12-31T17:30:40.519Z,101409.45
2018-12-31T17:33:11.015Z,101405.56
2018-12-31T17:36:00.938Z,101405.60
2018-12-31T17:38:31.828Z,101400.80
2018-12-31T17:41:02.569Z,101395.73
2018-12-31T17:43:52.850Z,101401.34
2018-12-31T17:46:23.305Z,101394.79
2018-12-31T17:49:14.973Z,101397.72
2018-12-31T17:51:45.423Z,101389.80
2018-12-31T17:54:15.873Z,101386.91
2018-12-31T17:57:07.530Z,101386.91
2018-12-31T17:59:37.979Z,101383.86
2018-12-31T18:02:28.417Z,101382.68
2018-12-31T18:05:17.834Z,101393.38
2018-12-31T18:07:48.681Z,101392.28
2018-12-31T18:13:33.494Z,101387.63
2018-12-31T18:16:25.107Z,101389.50
2018-12-31T18:18:55.599Z,101407.16
2018-12-31T18:21:45.554Z,101401.38
2018-12-31T18:24:17.750Z,101402.71
2018-12-31T18:26:50.388Z,101402.43
2018-12-31T18:29:22.603Z,101404.04
2018-12-31T18:31:53.235Z,101399.52
2018-12-31T18:34:24.058Z,101400.27
2018-12-31T18:36:54.557Z,101403.05
2018-12-31T18:39:25.004Z,101402.67
2018-12-31T18:41:55.455Z,101402.71
2018-12-31T18:44:26.070Z,101405.91
2018-12-31T18:46:56.518Z,101411.23
2018-12-31T18:49:27.353Z,101409.45
2018-12-31T18:51:57.850Z,101412.00
2018-12-31T18:57:39.167Z,101410.59
2018-12-31T19:00:30.782Z,101412.80
2018-12-31T19:03:03.346Z,101423.30
2018-12-31T19:05:33.800Z,101427.95
2018-12-31T19:08:04.345Z,101423.03
2018-12-31T19:10:35.159Z,101419.23
2018-12-31T19:13:05.930Z,101420.56
2018-12-31T19:15:55.893Z,101424.26
2018-12-31T19:18:26.337Z,101427.88
2018-12-31T19:20:56.787Z,101426.23
2018-12-31T19:23:27.675Z,101425.59
2018-12-31T19:25:58.114Z,101422.92
2018-12-31T19:28:28.557Z,101420.64
2018-12-31T19:30:59.071Z,101413.33
2018-12-31T19:33:29.835Z,101409.59
2018-12-31T19:36:00.292Z,101411.58
2018-12-31T19:38:50.247Z,101410.81
2018-12-31T19:41:40.166Z,101401.22
2018-12-31T19:44:30.131Z,101396.73
2018-12-31T19:47:20.047Z,101402.43
2018-12-31T19:49:50.549Z,101403.53
2018-12-31T19:52:21.334Z,101396.61
2018-12-31T19:54:51.779Z,101395.77
2018-12-31T19:57:22.271Z,101396.30
2018-12-31T19:59:54.444Z,101398.25
2018-12-31T20:02:46.107Z,101398.71
2018-12-31T20:05:16.556Z,101395.09
2018-12-31T20:08:06.943Z,101388.16
2018-12-31T20:10:37.801Z,101395.01
2018-12-31T20:13:08.252Z,101401.27
2018-12-31T20:15:38.759Z,101397.67
2018-12-31T20:18:09.209Z,101397.45
2018-12-31T20:20:40.033Z,101389.10
2018-12-31T20:23:10.534Z,101388.16
2018-12-31T20:26:00.480Z,101385.50
2018-12-31T20:28:30.982Z,101383.55
2018-12-31T20:31:20.900Z,101386.70
2018-12-31T20:37:06.771Z,101387.39
2018-12-31T20:39:37.623Z,101389.27
2018-12-31T20:42:09.020Z,101384.99
2018-12-31T20:44:39.855Z,101386.33
2018-12-31T20:47:10.309Z,101380.55
2018-12-31T20:49:40.768Z,101384.12
2018-12-31T20:52:31.100Z,101372.93
2018-12-31T20:55:01.939Z,101378.45
2018-12-31T20:57:32.443Z,101373.81
2018-12-31T21:00:22.359Z,101377.62
2018-12-31T21:03:12.325Z,101366.34
2018-12-31T21:06:02.248Z,101364.06
2018-12-31T21:08:33.445Z,101358.96
2018-12-31T21:11:03.889Z,101354.27
2018-12-31T21:13:34.336Z,101352.63
2018-12-31T21:16:05.618Z,101350.91
2018-12-31T21:21:52.662Z,101342.63
2018-12-31T21:24:23.816Z,101348.36
2018-12-31T21:26:54.434Z,101341.01
2018-12-31T21:29:24.889Z,101348.74
2018-12-31T21:31:55.367Z,101349.41
2018-12-31T21:34:25.818Z,101348.30
2018-12-31T21:37:15.788Z,101343.12
2018-12-31T21:39:58.964Z,101330.48
2018-12-31T21:42:44.085Z,101341.26
2018-12-31T21:45:22.240Z,101335.17
2018-12-31T21:48:12.199Z,101348.15
2018-12-31T21:50:43.066Z,101346.06
2018-12-31T21:53:13.518Z,101339.63
2018-12-31T21:55:43.993Z,101334.07
2018-12-31T21:58:34.296Z,101333.84
2018-12-31T22:01:04.792Z,101341.60
2018-12-31T22:03:35.249Z,101341.95
2018-12-31T22:06:26.923Z,101333.61
2018-12-31T22:08:57.375Z,101337.23
2018-12-31T22:11:47.315Z,101324.97
2018-12-31T22:14:17.764Z,101318.42
2018-12-31T22:16:48.506Z,101318.08
2018-12-31T22:19:19.303Z,101312.02
2018-12-31T22:21:49.749Z,101307.04
2018-12-31T22:24:20.206Z,101296.38
2018-12-31T22:26:52.788Z,101292.99
2018-12-31T22:29:23.506Z,101284.87
2018-12-31T22:31:54.359Z,101280.66
2018-12-31T22:34:46.006Z,101281.41
2018-12-31T22:37:16.571Z,101283.70
2018-12-31T22:39:47.345Z,101276.66
2018-12-31T22:42:39.367Z,101277.64
2018-12-31T22:45:09.871Z,101265.27
2018-12-31T22:47:42.066Z,101250.73
2018-12-31T22:50:34.071Z,101241.48
2018-12-31T22:53:04.531Z,101250.27
2018-12-31T22:55:34.982Z,101253.80
2018-12-31T22:58:05.690Z,101253.42
2018-12-31T23:06:43.400Z,101236.91
2018-12-31T23:09:15.903Z,101249.89
2018-12-31T23:11:46.369Z,101247.84
2018-12-31T23:14:16.837Z,101244.22
2018-12-31T23:16:50.771Z,101238.73
2018-12-31T23:19:21.227Z,101228.78
2018-12-31T23:22:13.209Z,101224.32
2018-12-31T23:24:43.747Z,101225.50
2018-12-31T23:27:14.280Z,101233.16
2018-12-31T23:29:45.503Z,101227.19
2018-12-31T23:32:15.975Z,101210.33
2018-12-31T23:38:02.825Z,101204.92
2018-12-31T23:40:33.690Z,101206.72
2018-12-31T23:43:06.537Z,101194.03
2018-12-31T23:45:55.796Z,101186.27
2018-12-31T23:48:26.674Z,101186.85
2018-12-31T23:50:57.170Z,101183.35
2018-12-31T23:53:27.626Z,101171.30
2018-12-31T23:55:58.476Z,101172.78
2018-12-31T23:58:47.935Z,101173.53
